sensor_id;sensor_type;location;lat;lon;timestamp;temperature;humidity
67194;DHT22;54121;53.508;49.422;2023-04-01T00:00:59;6.10;65.60
67194;DHT22;54121;53.508;49.422;2023-04-01T00:03:32;6.00;65.60
67194;DHT22;54121;53.508;49.422;2023-04-01T00:06:05;5.80;65.80
67194;DHT22;54121;53.508;49.422;2023-04-01T00:08:31;6.00;66.00
67194;DHT22;54121;53.508;49.422;2023-04-01T00:11:00;5.90;66.20
67194;DHT22;54121;53.508;49.422;2023-04-01T00:13:29;5.90;66.70
67194;DHT22;54121;53.508;49.422;2023-04-01T00:15:58;5.80;67.00
67194;DHT22;54121;53.508;49.422;2023-04-01T00:18:29;5.80;67.50
67194;DHT22;54121;53.508;49.422;2023-04-01T00:20:56;5.70;67.20
67194;DHT22;54121;53.508;49.422;2023-04-01T00:23:25;5.70;67.70
67194;DHT22;54121;53.508;49.422;2023-04-01T00:25:53;5.70;67.60
67194;DHT22;54121;53.508;49.422;2023-04-01T00:28:22;5.80;67.50
67194;DHT22;54121;53.508;49.422;2023-04-01T00:30:48;5.70;67.60
67194;DHT22;54121;53.508;49.422;2023-04-01T00:33:15;5.80;67.60
67194;DHT22;54121;53.508;49.422;2023-04-01T00:35:43;5.70;67.50
67194;DHT22;54121;53.508;49.422;2023-04-01T00:38:16;5.60;67.70
67194;DHT22;54121;53.508;49.422;2023-04-01T00:40:45;5.70;67.40
67194;DHT22;54121;53.508;49.422;2023-04-01T00:43:15;5.70;67.60
67194;DHT22;54121;53.508;49.422;2023-04-01T00:45:47;5.70;67.80
67194;DHT22;54121;53.508;49.422;2023-04-01T00:48:14;5.70;68.20
67194;DHT22;54121;53.508;49.422;2023-04-01T00:50:44;5.70;68.40
67194;DHT22;54121;53.508;49.422;2023-04-01T00:53:14;5.50;68.90
67194;DHT22;54121;53.508;49.422;2023-04-01T00:55:46;5.60;68.90
67194;DHT22;54121;53.508;49.422;2023-04-01T00:58:14;3.90;67.80
67194;DHT22;54121;53.508;49.422;2023-04-01T01:00:45;5.50;68.60
67194;DHT22;54121;53.508;49.422;2023-04-01T01:03:15;5.50;68.80
67194;DHT22;54121;53.508;49.422;2023-04-01T01:11:13;5.40;69.10
67194;DHT22;54121;53.508;49.422;2023-04-01T01:14:05;5.40;69.60
67194;DHT22;54121;53.508;49.422;2023-04-01T01:16:30;5.40;69.70
67194;DHT22;54121;53.508;49.422;2023-04-01T01:19:45;5.40;69.80
67194;DHT22;54121;53.508;49.422;2023-04-01T01:21:59;5.40;69.80
67194;DHT22;54121;53.508;49.422;2023-04-01T01:27:31;4.70;69.90
67194;DHT22;54121;53.508;49.422;2023-04-01T01:32:33;5.30;70.30
67194;DHT22;54121;53.508;49.422;2023-04-01T01:37:43;5.30;70.10
67194;DHT22;54121;53.508;49.422;2023-04-01T01:40:12;5.30;69.60
67194;DHT22;54121;53.508;49.422;2023-04-01T01:42:42;5.30;69.50
67194;DHT22;54121;53.508;49.422;2023-04-01T01:45:13;5.20;69.50
67194;DHT22;54121;53.508;49.422;2023-04-01T01:47:40;5.10;70.20
67194;DHT22;54121;53.508;49.422;2023-04-01T01:50:07;5.20;70.30
67194;DHT22;54121;53.508;49.422;2023-04-01T01:52:37;5.20;71.90
67194;DHT22;54121;53.508;49.422;2023-04-01T01:55:22;5.10;70.40
67194;DHT22;54121;53.508;49.422;2023-04-01T01:57:54;5.10;70.60
67194;DHT22;54121;53.508;49.422;2023-04-01T02:00:25;5.10;70.60
67194;DHT22;54121;53.508;49.422;2023-04-01T02:02:54;5.20;70.80
67194;DHT22;54121;53.508;49.422;2023-04-01T02:05:21;5.10;70.80
67194;DHT22;54121;53.508;49.422;2023-04-01T02:07:59;5.10;71.30
67194;DHT22;54121;53.508;49.422;2023-04-01T02:10:31;5.00;71.80
67194;DHT22;54121;53.508;49.422;2023-04-01T02:13:03;4.90;72.30
67194;DHT22;54121;53.508;49.422;2023-04-01T02:15:33;4.90;72.60
67194;DHT22;54121;53.508;49.422;2023-04-01T02:18:01;4.90;73.90
67194;DHT22;54121;53.508;49.422;2023-04-01T02:20:30;4.90;72.90
67194;DHT22;54121;53.508;49.422;2023-04-01T02:22:59;4.90;72.90
67194;DHT22;54121;53.508;49.422;2023-04-01T02:25:33;4.90;73.50
67194;DHT22;54121;53.508;49.422;2023-04-01T02:28:02;4.80;73.50
67194;DHT22;54121;53.508;49.422;2023-04-01T02:30:31;4.90;73.60
67194;DHT22;54121;53.508;49.422;2023-04-01T02:33:03;4.80;73.90
67194;DHT22;54121;53.508;49.422;2023-04-01T02:35:32;4.70;74.10
67194;DHT22;54121;53.508;49.422;2023-04-01T02:38:01;4.70;74.00
67194;DHT22;54121;53.508;49.422;2023-04-01T02:40:40;4.70;74.30
67194;DHT22;54121;53.508;49.422;2023-04-01T02:43:06;4.80;73.70
67194;DHT22;54121;53.508;49.422;2023-04-01T02:45:37;4.80;73.60
67194;DHT22;54121;53.508;49.422;2023-04-01T02:48:08;4.80;73.60
67194;DHT22;54121;53.508;49.422;2023-04-01T02:50:38;5.90;74.00
67194;DHT22;54121;53.508;49.422;2023-04-01T02:53:06;4.90;74.60
67194;DHT22;54121;53.508;49.422;2023-04-01T02:55:35;4.90;73.20
67194;DHT22;54121;53.508;49.422;2023-04-01T02:58:04;4.80;73.20
67194;DHT22;54121;53.508;49.422;2023-04-01T03:00:33;4.90;73.30
67194;DHT22;54121;53.508;49.422;2023-04-01T03:03:03;4.90;73.10
67194;DHT22;54121;53.508;49.422;2023-04-01T03:05:30;4.90;73.30
67194;DHT22;54121;53.508;49.422;2023-04-01T03:07:58;5.00;73.30
67194;DHT22;54121;53.508;49.422;2023-04-01T03:10:27;5.00;73.10
67194;DHT22;54121;53.508;49.422;2023-04-01T03:12:56;5.10;72.90
67194;DHT22;54121;53.508;49.422;2023-04-01T03:15:22;5.20;72.40
67194;DHT22;54121;53.508;49.422;2023-04-01T03:17:48;5.20;72.10
67194;DHT22;54121;53.508;49.422;2023-04-01T03:20:17;5.30;71.50
67194;DHT22;54121;53.508;49.422;2023-04-01T03:22:48;5.30;70.90
67194;DHT22;54121;53.508;49.422;2023-04-01T03:25:17;5.40;70.70
67194;DHT22;54121;53.508;49.422;2023-04-01T03:27:45;5.50;70.20
67194;DHT22;54121;53.508;49.422;2023-04-01T03:30:12;5.50;70.10
67194;DHT22;54121;53.508;49.422;2023-04-01T03:32:38;5.60;69.50
67194;DHT22;54121;53.508;49.422;2023-04-01T03:35:09;5.60;69.40
67194;DHT22;54121;53.508;49.422;2023-04-01T03:37:36;5.60;69.10
67194;DHT22;54121;53.508;49.422;2023-04-01T03:40:04;5.70;68.70
67194;DHT22;54121;53.508;49.422;2023-04-01T03:42:31;5.80;68.30
67194;DHT22;54121;53.508;49.422;2023-04-01T03:45:01;5.90;67.80
67194;DHT22;54121;53.508;49.422;2023-04-01T03:47:29;6.10;66.50
67194;DHT22;54121;53.508;49.422;2023-04-01T03:49:59;6.30;65.30
67194;DHT22;54121;53.508;49.422;2023-04-01T03:52:25;6.50;64.60
67194;DHT22;54121;53.508;49.422;2023-04-01T03:54:52;6.60;63.50
67194;DHT22;54121;53.508;49.422;2023-04-01T03:57:19;6.60;63.10
67194;DHT22;54121;53.508;49.422;2023-04-01T03:59:45;6.70;62.60
67194;DHT22;54121;53.508;49.422;2023-04-01T04:02:14;6.80;62.10
67194;DHT22;54121;53.508;49.422;2023-04-01T04:04:41;7.00;61.50
67194;DHT22;54121;53.508;49.422;2023-04-01T04:07:07;7.40;59.80
67194;DHT22;54121;53.508;49.422;2023-04-01T04:09:34;7.90;58.70
67194;DHT22;54121;53.508;49.422;2023-04-01T04:12:03;8.10;56.10
67194;DHT22;54121;53.508;49.422;2023-04-01T04:14:34;8.30;55.50
67194;DHT22;54121;53.508;49.422;2023-04-01T04:17:05;7.30;53.80
67194;DHT22;54121;53.508;49.422;2023-04-01T04:19:34;8.50;53.60
67194;DHT22;54121;53.508;49.422;2023-04-01T04:22:01;8.70;52.90
67194;DHT22;54121;53.508;49.422;2023-04-01T04:24:27;9.10;51.80
67194;DHT22;54121;53.508;49.422;2023-04-01T04:26:55;9.60;49.20
67194;DHT22;54121;53.508;49.422;2023-04-01T04:29:21;9.70;49.20
67194;DHT22;54121;53.508;49.422;2023-04-01T04:31:48;10.10;47.40
67194;DHT22;54121;53.508;49.422;2023-04-01T04:34:15;9.30;45.80
67194;DHT22;54121;53.508;49.422;2023-04-01T04:36:42;10.60;45.40
67194;DHT22;54121;53.508;49.422;2023-04-01T04:39:09;10.70;45.10
67194;DHT22;54121;53.508;49.422;2023-04-01T04:41:40;11.20;44.10
67194;DHT22;54121;53.508;49.422;2023-04-01T04:44:07;11.50;42.90
67194;DHT22;54121;53.508;49.422;2023-04-01T04:46:34;11.90;41.50
67194;DHT22;54121;53.508;49.422;2023-04-01T04:49:04;11.00;40.40
67194;DHT22;54121;53.508;49.422;2023-04-01T04:51:31;12.60;38.80
67194;DHT22;54121;53.508;49.422;2023-04-01T04:54:01;13.20;37.40
67194;DHT22;54121;53.508;49.422;2023-04-01T04:56:28;13.10;36.10
67194;DHT22;54121;53.508;49.422;2023-04-01T04:58:57;13.00;35.90
67194;DHT22;54121;53.508;49.422;2023-04-01T05:01:28;13.30;35.40
67194;DHT22;54121;53.508;49.422;2023-04-01T05:03:57;13.50;34.40
67194;DHT22;54121;53.508;49.422;2023-04-01T05:06:26;13.40;34.70
67194;DHT22;54121;53.508;49.422;2023-04-01T05:08:55;13.60;33.80
67194;DHT22;54121;53.508;49.422;2023-04-01T05:11:25;14.10;32.70
67194;DHT22;54121;53.508;49.422;2023-04-01T05:13:52;14.60;31.20
67194;DHT22;54121;53.508;49.422;2023-04-01T05:16:20;14.30;30.60
67194;DHT22;54121;53.508;49.422;2023-04-01T05:18:51;14.30;31.90
67194;DHT22;54121;53.508;49.422;2023-04-01T05:21:17;14.30;30.90
67194;DHT22;54121;53.508;49.422;2023-04-01T05:23:44;14.70;31.10
67194;DHT22;54121;53.508;49.422;2023-04-01T05:26:13;14.60;29.80
67194;DHT22;54121;53.508;49.422;2023-04-01T05:28:40;14.60;29.80
67194;DHT22;54121;53.508;49.422;2023-04-01T05:31:09;14.90;29.80
67194;DHT22;54121;53.508;49.422;2023-04-01T05:33:38;14.90;29.40
67194;DHT22;54121;53.508;49.422;2023-04-01T05:36:14;14.10;28.30
67194;DHT22;54121;53.508;49.422;2023-04-01T05:38:41;15.00;27.30
67194;DHT22;54121;53.508;49.422;2023-04-01T05:41:14;15.50;27.40
67194;DHT22;54121;53.508;49.422;2023-04-01T05:43:41;15.20;28.40
67194;DHT22;54121;53.508;49.422;2023-04-01T05:46:11;15.30;27.90
67194;DHT22;54121;53.508;49.422;2023-04-01T05:48:40;15.40;27.90
67194;DHT22;54121;53.508;49.422;2023-04-01T05:51:11;15.90;27.40
67194;DHT22;54121;53.508;49.422;2023-04-01T05:53:41;16.30;25.90
67194;DHT22;54121;53.508;49.422;2023-04-01T05:56:07;16.70;26.10
67194;DHT22;54121;53.508;49.422;2023-04-01T05:58:39;16.60;25.00
67194;DHT22;54121;53.508;49.422;2023-04-01T06:01:08;17.20;24.50
67194;DHT22;54121;53.508;49.422;2023-04-01T06:03:37;17.10;23.80
67194;DHT22;54121;53.508;49.422;2023-04-01T06:06:09;17.10;24.50
67194;DHT22;54121;53.508;49.422;2023-04-01T06:08:41;17.60;23.70
67194;DHT22;54121;53.508;49.422;2023-04-01T06:21:25;17.30;24.40
67194;DHT22;54121;53.508;49.422;2023-04-01T06:27:22;18.80;22.40
67194;DHT22;54121;53.508;49.422;2023-04-01T06:35:06;19.50;20.10
67194;DHT22;54121;53.508;49.422;2023-04-01T06:37:34;19.20;21.00
67194;DHT22;54121;53.508;49.422;2023-04-01T06:50:26;20.80;19.10
67194;DHT22;54121;53.508;49.422;2023-04-01T06:53:38;20.70;19.20
67194;DHT22;54121;53.508;49.422;2023-04-01T06:58:35;22.10;17.80
67194;DHT22;54121;53.508;49.422;2023-04-01T07:01:03;21.30;18.30
67194;DHT22;54121;53.508;49.422;2023-04-01T07:03:33;21.60;17.90
67194;DHT22;54121;53.508;49.422;2023-04-01T07:06:04;21.40;18.50
67194;DHT22;54121;53.508;49.422;2023-04-01T07:08:34;21.70;17.50
67194;DHT22;54121;53.508;49.422;2023-04-01T07:11:08;20.70;18.90
67194;DHT22;54121;53.508;49.422;2023-04-01T07:18:32;21.60;18.10
67194;DHT22;54121;53.508;49.422;2023-04-01T07:21:03;20.20;18.10
67194;DHT22;54121;53.508;49.422;2023-04-01T07:23:32;20.50;19.10
67194;DHT22;54121;53.508;49.422;2023-04-01T07:26:15;20.40;18.80
67194;DHT22;54121;53.508;49.422;2023-04-01T07:28:45;20.10;19.30
67194;DHT22;54121;53.508;49.422;2023-04-01T07:31:32;19.60;20.10
67194;DHT22;54121;53.508;49.422;2023-04-01T07:34:49;19.50;19.70
67194;DHT22;54121;53.508;49.422;2023-04-01T07:39:37;19.70;20.20
67194;DHT22;54121;53.508;49.422;2023-04-01T07:42:13;20.30;19.70
67194;DHT22;54121;53.508;49.422;2023-04-01T07:47:39;19.30;20.80
67194;DHT22;54121;53.508;49.422;2023-04-01T07:50:13;20.30;20.20
67194;DHT22;54121;53.508;49.422;2023-04-01T08:00:33;19.60;20.40
67194;DHT22;54121;53.508;49.422;2023-04-01T08:05:34;19.50;20.50
67194;DHT22;54121;53.508;49.422;2023-04-01T08:10:51;19.40;21.00
67194;DHT22;54121;53.508;49.422;2023-04-01T08:18:39;20.00;20.60
67194;DHT22;54121;53.508;49.422;2023-04-01T08:21:13;20.50;20.20
67194;DHT22;54121;53.508;49.422;2023-04-01T08:23:46;20.00;20.60
67194;DHT22;54121;53.508;49.422;2023-04-01T08:31:18;20.00;20.70
67194;DHT22;54121;53.508;49.422;2023-04-01T08:33:48;20.40;20.00
67194;DHT22;54121;53.508;49.422;2023-04-01T08:38:52;20.10;20.10
67194;DHT22;54121;53.508;49.422;2023-04-01T08:44:11;20.10;19.70
67194;DHT22;54121;53.508;49.422;2023-04-01T08:52:13;20.30;20.60
67194;DHT22;54121;53.508;49.422;2023-04-01T08:54:48;20.00;20.80
67194;DHT22;54121;53.508;49.422;2023-04-01T09:06:39;19.20;21.50
67194;DHT22;54121;53.508;49.422;2023-04-01T09:14:37;20.60;19.30
67194;DHT22;54121;53.508;49.422;2023-04-01T09:17:18;21.20;19.50
67194;DHT22;54121;53.508;49.422;2023-04-01T09:20:02;21.50;17.80
67194;DHT22;54121;53.508;49.422;2023-04-01T09:25:16;20.90;19.20
67194;DHT22;54121;53.508;49.422;2023-04-01T09:28:01;19.10;18.30
67194;DHT22;54121;53.508;49.422;2023-04-01T09:36:01;21.90;17.70
67194;DHT22;54121;53.508;49.422;2023-04-01T09:38:54;21.60;18.50
67194;DHT22;54121;53.508;49.422;2023-04-01T09:43:58;22.30;17.10
67194;DHT22;54121;53.508;49.422;2023-04-01T09:49:04;21.20;18.30
67194;DHT22;54121;53.508;49.422;2023-04-01T09:54:13;22.70;16.60
67194;DHT22;54121;53.508;49.422;2023-04-01T10:02:09;23.50;15.80
67194;DHT22;54121;53.508;49.422;2023-04-01T10:04:50;23.70;16.10
67194;DHT22;54121;53.508;49.422;2023-04-01T10:10:34;23.10;15.60
67194;DHT22;54121;53.508;49.422;2023-04-01T10:15:57;22.80;16.70
67194;DHT22;54121;53.508;49.422;2023-04-01T10:26:32;25.90;12.80
67194;DHT22;54121;53.508;49.422;2023-04-01T10:29:17;25.60;13.10
67194;DHT22;54121;53.508;49.422;2023-04-01T10:34:26;23.50;15.20
67194;DHT22;54121;53.508;49.422;2023-04-01T10:36:57;24.50;14.20
67194;DHT22;54121;53.508;49.422;2023-04-01T10:45:09;25.80;12.80
67194;DHT22;54121;53.508;49.422;2023-04-01T11:19:18;27.80;12.00
67194;DHT22;54121;53.508;49.422;2023-04-01T11:30:02;26.80;12.60
67194;DHT22;54121;53.508;49.422;2023-04-01T11:47:52;28.00;11.40
67194;DHT22;54121;53.508;49.422;2023-04-01T11:51:09;25.80;11.30
67194;DHT22;54121;53.508;49.422;2023-04-01T12:01:29;24.90;13.30
67194;DHT22;54121;53.508;49.422;2023-04-01T12:06:44;26.90;12.90
67194;DHT22;54121;53.508;49.422;2023-04-01T12:09:58;27.40;12.70
67194;DHT22;54121;53.508;49.422;2023-04-01T12:27:54;23.20;16.00
67194;DHT22;54121;53.508;49.422;2023-04-01T12:30:27;22.70;16.90
67194;DHT22;54121;53.508;49.422;2023-04-01T12:40:56;23.30;16.40
67194;DHT22;54121;53.508;49.422;2023-04-01T12:48:54;20.80;19.00
67194;DHT22;54121;53.508;49.422;2023-04-01T13:02:00;23.10;17.00
67194;DHT22;54121;53.508;49.422;2023-04-01T13:09:53;22.70;17.60
67194;DHT22;54121;53.508;49.422;2023-04-01T13:17:52;22.90;16.90
67194;DHT22;54121;53.508;49.422;2023-04-01T13:20:36;21.90;17.90
67194;DHT22;54121;53.508;49.422;2023-04-01T13:30:45;19.40;20.90
67194;DHT22;54121;53.508;49.422;2023-04-01T13:43:49;19.60;20.70
67194;DHT22;54121;53.508;49.422;2023-04-01T13:54:08;17.90;24.00
67194;DHT22;54121;53.508;49.422;2023-04-01T14:04:44;17.00;24.00
67194;DHT22;54121;53.508;49.422;2023-04-01T14:07:16;17.90;23.00
67194;DHT22;54121;53.508;49.422;2023-04-01T14:09:54;17.20;23.20
67194;DHT22;54121;53.508;49.422;2023-04-01T14:38:53;16.80;24.90
67194;DHT22;54121;53.508;49.422;2023-04-01T14:51:45;16.80;25.10
67194;DHT22;54121;53.508;49.422;2023-04-01T14:56:40;16.90;25.00
67194;DHT22;54121;53.508;49.422;2023-04-01T15:00:12;17.00;25.00
67194;DHT22;54121;53.508;49.422;2023-04-01T15:18:07;16.60;25.60
67194;DHT22;54121;53.508;49.422;2023-04-01T15:20:41;16.50;25.60
67194;DHT22;54121;53.508;49.422;2023-04-01T15:25:45;15.50;26.80
67194;DHT22;54121;53.508;49.422;2023-04-01T15:28:19;13.80;26.90
67194;DHT22;54121;53.508;49.422;2023-04-01T15:33:20;15.30;27.60
67194;DHT22;54121;53.508;49.422;2023-04-01T15:35:57;15.60;26.80
67194;DHT22;54121;53.508;49.422;2023-04-01T15:43:33;15.70;26.40
67194;DHT22;54121;53.508;49.422;2023-04-01T15:49:04;15.90;26.30
67194;DHT22;54121;53.508;49.422;2023-04-01T15:57:11;15.60;26.60
67194;DHT22;54121;53.508;49.422;2023-04-01T15:59:53;15.80;26.40
67194;DHT22;54121;53.508;49.422;2023-04-01T16:10:34;16.00;26.20
67194;DHT22;54121;53.508;49.422;2023-04-01T16:15:54;16.00;26.20
67194;DHT22;54121;53.508;49.422;2023-04-01T16:21:10;16.10;26.00
67194;DHT22;54121;53.508;49.422;2023-04-01T16:28:44;16.10;26.30
67194;DHT22;54121;53.508;49.422;2023-04-01T16:33:52;16.10;26.20
67194;DHT22;54121;53.508;49.422;2023-04-01T16:39:17;16.00;26.50
67194;DHT22;54121;53.508;49.422;2023-04-01T16:41:57;14.40;25.80
67194;DHT22;54121;53.508;49.422;2023-04-01T16:44:31;14.70;26.10
67194;DHT22;54121;53.508;49.422;2023-04-01T16:47:12;16.00;27.30
67194;DHT22;54121;53.508;49.422;2023-04-01T16:49:42;15.80;27.70
67194;DHT22;54121;53.508;49.422;2023-04-01T16:52:15;13.90;27.70
67194;DHT22;54121;53.508;49.422;2023-04-01T16:54:50;15.70;28.10
67194;DHT22;54121;53.508;49.422;2023-04-01T16:57:23;15.60;28.70
67194;DHT22;54121;53.508;49.422;2023-04-01T16:59:56;14.50;28.00
67194;DHT22;54121;53.508;49.422;2023-04-01T17:02:31;15.40;29.30
67194;DHT22;54121;53.508;49.422;2023-04-01T17:25:47;15.50;29.20
67194;DHT22;54121;53.508;49.422;2023-04-01T17:28:31;13.90;28.60
67194;DHT22;54121;53.508;49.422;2023-04-01T17:31:05;15.30;29.30
67194;DHT22;54121;53.508;49.422;2023-04-01T17:33:41;15.50;29.30
67194;DHT22;54121;53.508;49.422;2023-04-01T17:36:21;15.50;29.30
67194;DHT22;54121;53.508;49.422;2023-04-01T17:39:11;13.60;28.50
67194;DHT22;54121;53.508;49.422;2023-04-01T17:41:46;15.40;29.40
67194;DHT22;54121;53.508;49.422;2023-04-01T17:55:32;15.00;30.50
67194;DHT22;54121;53.508;49.422;2023-04-01T18:00:18;14.70;30.90
67194;DHT22;54121;53.508;49.422;2023-04-01T18:15:31;14.70;31.20
67194;DHT22;54121;53.508;49.422;2023-04-01T18:25:33;14.20;32.80
67194;DHT22;54121;53.508;49.422;2023-04-01T18:30:50;14.00;34.00
67194;DHT22;54121;53.508;49.422;2023-04-01T18:33:31;13.30;33.30
67194;DHT22;54121;53.508;49.422;2023-04-01T18:36:14;14.00;34.50
67194;DHT22;54121;53.508;49.422;2023-04-01T18:41:24;13.80;35.20
67194;DHT22;54121;53.508;49.422;2023-04-01T18:54:33;14.20;34.60
67194;DHT22;54121;53.508;49.422;2023-04-01T18:57:01;14.00;34.70
67194;DHT22;54121;53.508;49.422;2023-04-01T19:00:02;13.90;34.20
67194;DHT22;54121;53.508;49.422;2023-04-01T19:02:34;14.00;35.10
67194;DHT22;54121;53.508;49.422;2023-04-01T19:05:17;14.20;34.70
67194;DHT22;54121;53.508;49.422;2023-04-01T19:07:50;14.20;34.80
67194;DHT22;54121;53.508;49.422;2023-04-01T19:38:39;14.00;35.30
67194;DHT22;54121;53.508;49.422;2023-04-01T19:49:04;13.90;35.40
67194;DHT22;54121;53.508;49.422;2023-04-01T19:59:24;13.50;36.00
67194;DHT22;54121;53.508;49.422;2023-04-01T20:04:32;13.50;35.30
67194;DHT22;54121;53.508;49.422;2023-04-01T20:12:31;13.50;34.90
67194;DHT22;54121;53.508;49.422;2023-04-01T20:14:50;13.50;35.10
67194;DHT22;54121;53.508;49.422;2023-04-01T20:17:18;13.50;34.80
67194;DHT22;54121;53.508;49.422;2023-04-01T20:27:45;12.50;33.70
67194;DHT22;54121;53.508;49.422;2023-04-01T20:38:23;13.20;33.70
67194;DHT22;54121;53.508;49.422;2023-04-01T20:41:40;13.30;33.30
67194;DHT22;54121;53.508;49.422;2023-04-01T20:48:46;12.90;33.50
67194;DHT22;54121;53.508;49.422;2023-04-01T20:54:05;12.90;32.60
67194;DHT22;54121;53.508;49.422;2023-04-01T20:57:11;13.20;32.00
67194;DHT22;54121;53.508;49.422;2023-04-01T21:07:39;12.20;30.80
67194;DHT22;54121;53.508;49.422;2023-04-01T21:18:13;12.80;30.60
67194;DHT22;54121;53.508;49.422;2023-04-01T21:23:39;13.50;31.10
67194;DHT22;54121;53.508;49.422;2023-04-01T21:32:08;11.70;30.10
67194;DHT22;54121;53.508;49.422;2023-04-01T21:34:43;11.70;29.80
67194;DHT22;54121;53.508;49.422;2023-04-01T21:40:32;13.90;30.40
67194;DHT22;54121;53.508;49.422;2023-04-01T21:42:55;12.20;29.70
67194;DHT22;54121;53.508;49.422;2023-04-01T22:06:24;14.20;29.70
67194;DHT22;54121;53.508;49.422;2023-04-01T22:09:02;14.30;29.60
67194;DHT22;54121;53.508;49.422;2023-04-01T22:19:04;14.30;29.60
67194;DHT22;54121;53.508;49.422;2023-04-01T22:29:17;14.40;29.70
67194;DHT22;54121;53.508;49.422;2023-04-01T22:34:38;14.40;29.70
67194;DHT22;54121;53.508;49.422;2023-04-01T22:40:15;14.50;29.70
67194;DHT22;54121;53.508;49.422;2023-04-01T22:52:42;14.40;29.80
67194;DHT22;54121;53.508;49.422;2023-04-01T22:55:15;14.50;29.80
67194;DHT22;54121;53.508;49.422;2023-04-01T23:03:03;14.50;29.90
67194;DHT22;54121;53.508;49.422;2023-04-01T23:05:33;14.50;29.80
67194;DHT22;54121;53.508;49.422;2023-04-01T23:10:42;14.60;29.90
67194;DHT22;54121;53.508;49.422;2023-04-01T23:13:12;14.50;30.00
67194;DHT22;54121;53.508;49.422;2023-04-01T23:15:43;14.50;29.90
67194;DHT22;54121;53.508;49.422;2023-04-01T23:25:51;14.80;29.50
67194;DHT22;54121;53.508;49.422;2023-04-01T23:28:25;14.50;29.90
67194;DHT22;54121;53.508;49.422;2023-04-01T23:30:59;14.40;30.20
67194;DHT22;54121;53.508;49.422;2023-04-01T23:33:28;14.30;30.40
67194;DHT22;54121;53.508;49.422;2023-04-01T23:35:56;14.30;30.60
67194;DHT22;54121;53.508;49.422;2023-04-01T23:38:37;14.40;30.40
67194;DHT22;54121;53.508;49.422;2023-04-01T23:41:04;14.50;30.00
67194;DHT22;54121;53.508;49.422;2023-04-01T23:43:33;14.50;30.10
67194;DHT22;54121;53.508;49.422;2023-04-01T23:46:03;14.50;30.30
67194;DHT22;54121;53.508;49.422;2023-04-01T23:48:36;14.50;30.30
67194;DHT22;54121;53.508;49.422;2023-04-01T23:51:05;14.50;30.30
67194;DHT22;54121;53.508;49.422;2023-04-01T23:53:36;14.60;30.00
67194;DHT22;54121;53.508;49.422;2023-04-01T23:56:08;14.50;30.00
